Time;durP1;ratioP1;P1;durP2;ratioP2;P2;SDS_P1;SDS_P2;PMS_P1;PMS_P2;Temp;Humidity;BMP_temperature;BMP_pressure;BME280_temperature;BME280_humidity;BME280_pressure;Samples;Min_cycle;Max_cycle;Signal;HPM_P1;HPM_P2
2022/04/13 00:00:29;;;;;;;11.18;8.82;;;13.00;99.90;;;;;;5023496;28;20568;-73
2022/04/13 00:02:55;;;;;;;9.40;6.00;;;13.00;99.90;;;;;;5007481;28;20046;-73
2022/04/13 00:05:21;;;;;;;9.02;6.40;;;13.00;99.90;;;;;;5026034;28;20046;-73
2022/04/13 00:07:46;;;;;;;8.95;6.13;;;12.90;99.90;;;;;;5023297;28;20091;-73
2022/04/13 00:10:12;;;;;;;9.00;6.30;;;12.80;99.90;;;;;;5023999;28;20061;-73
2022/04/13 00:12:38;;;;;;;11.88;7.38;;;12.80;99.90;;;;;;5025299;28;20072;-73
2022/04/13 00:15:05;;;;;;;8.60;6.82;;;12.70;99.90;;;;;;5022600;28;20041;-73
2022/04/13 00:17:31;;;;;;;12.20;8.80;;;12.60;99.90;;;;;;5025481;28;20073;-73
2022/04/13 00:19:58;;;;;;;11.85;7.85;;;12.60;99.90;;;;;;5044321;28;20091;-73
2022/04/13 00:22:24;;;;;;;11.40;8.73;;;12.50;99.90;;;;;;5011349;28;20443;-73
2022/04/13 00:24:50;;;;;;;13.45;9.68;;;12.50;99.90;;;;;;4996116;28;20095;-73
2022/04/13 00:27:16;;;;;;;13.90;9.77;;;12.40;99.90;;;;;;5014405;28;20136;-73
2022/04/13 00:29:42;;;;;;;12.85;9.98;;;12.50;99.90;;;;;;5026828;28;20708;-73
2022/04/13 00:32:08;;;;;;;12.80;10.15;;;12.40;99.90;;;;;;5029209;28;20045;-72
2022/04/13 00:34:34;;;;;;;10.40;9.05;;;12.50;99.90;;;;;;5026715;28;20052;-72
2022/04/13 00:37:00;;;;;;;12.93;9.80;;;12.40;99.90;;;;;;5026783;28;20037;-73
2022/04/13 00:39:26;;;;;;;15.90;10.02;;;12.40;99.90;;;;;;5026366;28;20077;-72
2022/04/13 00:41:57;;;;;;;20.80;10.07;;;12.40;99.90;;;;;;5029323;28;20492;-72
2022/04/13 00:44:23;;;;;;;14.70;9.45;;;12.40;99.90;;;;;;5027065;28;20167;-73
2022/04/13 00:46:49;;;;;;;11.80;9.88;;;12.40;99.90;;;;;;5031136;28;20552;-72
2022/04/13 00:49:15;;;;;;;13.70;10.07;;;12.40;99.90;;;;;;5029062;28;20613;-72
2022/04/13 00:51:40;;;;;;;16.98;9.98;;;12.40;99.90;;;;;;5028805;28;20037;-72
2022/04/13 00:54:08;;;;;;;13.73;9.32;;;12.50;99.90;;;;;;5030911;28;20029;-73
2022/04/13 00:56:39;;;;;;;14.52;9.15;;;12.50;99.90;;;;;;5027620;28;20520;-72
2022/04/13 00:59:09;;;;;;;13.80;10.43;;;12.50;99.90;;;;;;5026401;28;20055;-73
2022/04/13 01:01:40;;;;;;;13.10;9.93;;;12.50;99.90;;;;;;5025119;28;20111;-72
2022/04/13 01:04:06;;;;;;;14.00;10.00;;;12.50;99.90;;;;;;5029011;28;20049;-73
2022/04/13 01:06:33;;;;;;;14.30;10.13;;;12.50;99.90;;;;;;5025661;28;20395;-73
2022/04/13 01:08:59;;;;;;;12.65;10.02;;;12.60;99.90;;;;;;5027850;28;20125;-72
2022/04/13 01:11:27;;;;;;;18.80;9.75;;;12.50;99.90;;;;;;5027654;28;20120;-73
2022/04/13 01:13:54;;;;;;;13.73;9.32;;;12.60;99.90;;;;;;5011215;28;20073;-72
2022/04/13 01:16:21;;;;;;;15.07;9.10;;;12.50;99.90;;;;;;5012377;28;20064;-72
2022/04/13 01:18:47;;;;;;;14.15;8.77;;;12.60;99.90;;;;;;5028078;28;20040;-72
2022/04/13 01:21:15;;;;;;;13.05;8.93;;;12.60;99.90;;;;;;5026329;28;20487;-72
2022/04/13 01:23:41;;;;;;;12.20;9.77;;;12.60;99.90;;;;;;5027474;28;20497;-72
2022/04/13 01:26:10;;;;;;;14.35;10.45;;;12.50;99.90;;;;;;5029253;28;20482;-72
2022/04/13 01:28:36;;;;;;;12.90;10.23;;;12.50;99.90;;;;;;5010040;28;20516;-72
2022/04/13 01:31:02;;;;;;;16.58;9.07;;;12.40;99.90;;;;;;5024488;28;20038;-72
2022/04/13 01:33:29;;;;;;;12.38;9.23;;;12.30;99.90;;;;;;5026297;28;20502;-72
2022/04/13 01:36:01;;;;;;;12.00;9.10;;;12.30;99.90;;;;;;5026527;28;20041;-72
2022/04/13 01:38:30;;;;;;;12.45;8.65;;;12.30;99.90;;;;;;5028441;28;20037;-72
2022/04/13 01:40:57;;;;;;;13.50;10.10;;;12.30;99.90;;;;;;5027927;28;20037;-72
2022/04/13 01:43:23;;;;;;;16.15;10.60;;;12.20;99.90;;;;;;5028566;28;20033;-72
2022/04/13 01:45:50;;;;;;;15.02;10.38;;;12.20;99.90;;;;;;5025274;28;20073;-72
2022/04/13 01:48:18;;;;;;;16.48;10.00;;;12.20;99.90;;;;;;5026611;28;20041;-72
2022/04/13 01:50:45;;;;;;;12.77;9.23;;;12.20;99.90;;;;;;5028784;28;20041;-72
2022/04/13 01:53:11;;;;;;;13.95;10.43;;;12.20;99.90;;;;;;5029295;28;20136;-72
2022/04/13 01:55:37;;;;;;;14.23;9.57;;;12.20;99.90;;;;;;5027605;28;20037;-72
2022/04/13 01:58:03;;;;;;;13.98;9.98;;;12.20;99.90;;;;;;5026497;28;20030;-72
2022/04/13 02:00:29;;;;;;;14.90;9.70;;;12.20;99.90;;;;;;5025447;28;20037;-72
2022/04/13 02:02:54;;;;;;;16.70;10.10;;;12.20;99.90;;;;;;5042313;28;20038;-72
2022/04/13 02:05:20;;;;;;;14.98;9.90;;;12.20;99.90;;;;;;5027129;28;20041;-72
2022/04/13 02:07:46;;;;;;;14.43;10.60;;;12.10;99.90;;;;;;5010010;28;20041;-72
2022/04/13 02:10:12;;;;;;;13.02;10.15;;;12.10;99.90;;;;;;5029303;28;20037;-72
2022/04/13 02:12:38;;;;;;;16.52;10.00;;;12.10;99.90;;;;;;5029668;28;20131;-72
2022/04/13 02:15:05;;;;;;;12.48;9.73;;;12.10;99.90;;;;;;5028473;28;20029;-72
2022/04/13 02:17:31;;;;;;;10.98;9.35;;;12.10;99.90;;;;;;5028448;28;20089;-72
2022/04/13 02:19:56;;;;;;;13.73;9.45;;;12.10;99.90;;;;;;5026616;28;20061;-72
2022/04/13 02:22:22;;;;;;;14.90;9.60;;;12.10;99.90;;;;;;5025489;28;20037;-72
2022/04/13 02:24:48;;;;;;;16.83;10.18;;;12.20;99.90;;;;;;5023802;28;20060;-72
2022/04/13 02:27:14;;;;;;;16.23;10.80;;;12.10;99.90;;;;;;5026098;28;20136;-72
2022/04/13 02:29:40;;;;;;;17.48;10.60;;;12.00;99.90;;;;;;5024046;28;20143;-72
2022/04/13 02:32:06;;;;;;;16.65;10.65;;;12.00;99.90;;;;;;5027462;28;20037;-72
2022/04/13 02:34:32;;;;;;;11.80;9.82;;;12.00;99.90;;;;;;5029065;28;20053;-72
2022/04/13 02:36:59;;;;;;;13.90;9.90;;;12.00;99.90;;;;;;5027876;28;20079;-72
2022/04/13 02:39:25;;;;;;;16.83;10.30;;;12.00;99.90;;;;;;5027251;28;20488;-72
2022/04/13 02:41:51;;;;;;;15.00;10.95;;;12.00;99.90;;;;;;5024165;28;20048;-72
2022/04/13 02:44:16;;;;;;;15.25;10.13;;;12.00;99.90;;;;;;5027024;28;20115;-72
2022/04/13 02:46:44;;;;;;;14.70;9.80;;;12.10;99.90;;;;;;5027517;28;20049;-72
2022/04/13 02:49:11;;;;;;;14.43;10.75;;;12.00;99.90;;;;;;5040518;28;20044;-73
2022/04/13 02:51:37;;;;;;;12.88;9.90;;;12.00;99.90;;;;;;5025470;28;20033;-72
2022/04/13 02:54:03;;;;;;;18.23;10.90;;;12.00;99.90;;;;;;5029371;28;20106;-72
2022/04/13 02:56:28;;;;;;;13.13;10.50;;;11.90;99.90;;;;;;5027803;28;20065;-72
2022/04/13 02:58:54;;;;;;;17.00;10.50;;;11.90;99.90;;;;;;5028555;28;20084;-72
2022/04/13 03:01:21;;;;;;;14.77;11.00;;;12.00;99.90;;;;;;5026542;28;20044;-72
2022/04/13 03:03:47;;;;;;;16.83;11.05;;;11.90;99.90;;;;;;5046907;28;20045;-72
2022/04/13 03:06:12;;;;;;;14.85;10.25;;;11.90;99.90;;;;;;5030761;28;20124;-72
2022/04/13 03:08:38;;;;;;;11.73;9.68;;;11.80;99.90;;;;;;5029358;28;20053;-72
2022/04/13 03:11:07;;;;;;;11.82;9.80;;;11.70;99.90;;;;;;5026967;28;20042;-71
2022/04/13 03:13:32;;;;;;;11.80;9.73;;;11.60;99.90;;;;;;5026989;28;20423;-71
2022/04/13 03:15:58;;;;;;;15.40;9.93;;;11.50;99.90;;;;;;5025802;28;20042;-72
2022/04/13 03:18:24;;;;;;;14.32;10.80;;;11.40;99.90;;;;;;5022821;28;20563;-71
2022/04/13 03:20:49;;;;;;;16.35;10.73;;;11.40;99.90;;;;;;5042325;28;20041;-71
2022/04/13 03:23:15;;;;;;;16.08;10.88;;;11.40;99.90;;;;;;5023904;28;20034;-71
2022/04/13 03:25:41;;;;;;;21.80;11.48;;;11.40;99.90;;;;;;5026063;28;20037;-71
2022/04/13 03:28:07;;;;;;;20.00;11.93;;;11.40;99.90;;;;;;5023911;28;20042;-71
2022/04/13 03:30:33;;;;;;;15.80;11.23;;;11.40;99.90;;;;;;5025398;28;20049;-71
2022/04/13 03:32:58;;;;;;;16.77;11.45;;;11.40;99.90;;;;;;5025100;28;20403;-71
2022/04/13 03:35:24;;;;;;;16.98;11.68;;;11.40;99.90;;;;;;5025308;28;20095;-71
2022/04/13 03:37:49;;;;;;;19.25;11.43;;;11.50;99.90;;;;;;5026542;28;20484;-71
2022/04/13 03:40:15;;;;;;;17.98;11.13;;;11.50;99.90;;;;;;5025300;28;20045;-71
2022/04/13 03:42:42;;;;;;;15.55;10.80;;;11.50;99.90;;;;;;5025658;28;20084;-71
2022/04/13 03:45:12;;;;;;;14.52;10.75;;;11.50;99.90;;;;;;5024831;28;20045;-71
2022/04/13 03:47:39;;;;;;;16.52;10.30;;;11.40;99.90;;;;;;5023416;28;20049;-71
2022/04/13 03:50:06;;;;;;;15.82;11.50;;;11.40;99.90;;;;;;5025011;28;20099;-72
2022/04/13 03:52:33;;;;;;;21.48;13.20;;;11.30;99.90;;;;;;5040143;28;20131;-71
2022/04/13 03:55:00;;;;;;;19.27;13.25;;;11.30;99.90;;;;;;5022451;28;20096;-71
2022/04/13 03:57:26;;;;;;;19.00;12.32;;;11.30;99.90;;;;;;5024095;28;20166;-72
2022/04/13 03:59:51;;;;;;;21.08;12.02;;;11.30;99.90;;;;;;5023470;28;20053;-71
2022/04/13 04:02:17;;;;;;;19.08;12.90;;;11.30;99.90;;;;;;5022956;28;20033;-71
2022/04/13 04:04:42;;;;;;;17.00;12.23;;;11.30;99.90;;;;;;5025066;28;20483;-71
2022/04/13 04:07:08;;;;;;;19.90;12.85;;;11.30;99.90;;;;;;5024034;28;20044;-71
2022/04/13 04:09:34;;;;;;;20.77;13.77;;;11.30;99.90;;;;;;5023754;28;20526;-71
2022/04/13 04:12:00;;;;;;;18.88;13.20;;;11.30;99.90;;;;;;5024234;28;20626;-71
2022/04/13 04:14:26;;;;;;;20.02;14.02;;;11.30;99.90;;;;;;5025924;28;20049;-71
2022/04/13 04:16:52;;;;;;;20.42;13.88;;;11.30;99.90;;;;;;5027882;28;20506;-72
2022/04/13 04:19:18;;;;;;;19.58;12.98;;;11.30;99.90;;;;;;5025395;28;20038;-72
2022/04/13 04:21:47;;;;;;;19.75;13.82;;;11.30;99.90;;;;;;5023770;28;20110;-72
2022/04/13 04:24:13;;;;;;;18.65;13.23;;;11.30;99.90;;;;;;5012526;28;20434;-72
2022/04/13 04:26:39;;;;;;;17.70;12.65;;;11.20;99.90;;;;;;5014235;28;20034;-72
2022/04/13 04:29:05;;;;;;;18.67;12.00;;;11.20;99.90;;;;;;5012757;28;20030;-72
2022/04/13 04:34:16;;;;;;;18.58;12.38;;;11.10;99.90;;;;;;5028759;28;20045;-72
2022/04/13 04:36:42;;;;;;;19.75;12.35;;;11.00;99.90;;;;;;5030397;28;20036;-72
2022/04/13 04:39:08;;;;;;;17.42;13.23;;;11.00;99.90;;;;;;5028383;28;20033;-72
2022/04/13 04:41:34;;;;;;;19.05;13.18;;;11.00;99.90;;;;;;5028924;28;20034;-72
2022/04/13 04:44:00;;;;;;;19.20;14.43;;;11.00;99.90;;;;;;5015177;28;20032;-72
2022/04/13 04:46:26;;;;;;;20.45;14.40;;;11.00;99.90;;;;;;5012773;28;20174;-72
2022/04/13 04:48:52;;;;;;;24.20;14.98;;;11.00;99.90;;;;;;5026365;28;20045;-72
2022/04/13 04:51:18;;;;;;;17.52;13.65;;;11.10;99.90;;;;;;5029414;28;20124;-72
2022/04/13 04:53:44;;;;;;;22.83;13.98;;;11.10;99.90;;;;;;5026004;28;20069;-72
2022/04/13 04:56:10;;;;;;;20.85;14.02;;;11.00;99.90;;;;;;5028417;28;20061;-72
2022/04/13 04:58:36;;;;;;;19.98;14.13;;;11.00;99.90;;;;;;5029180;28;20033;-72
2022/04/13 05:01:01;;;;;;;23.15;14.63;;;11.00;99.90;;;;;;5027961;28;20040;-72
2022/04/13 05:03:27;;;;;;;18.52;13.57;;;11.00;99.90;;;;;;5028885;28;20045;-72
2022/04/13 05:05:53;;;;;;;24.08;13.13;;;11.00;99.90;;;;;;5012095;28;20045;-72
2022/04/13 05:08:18;;;;;;;31.00;15.07;;;11.00;99.90;;;;;;5029479;28;20096;-72
2022/04/13 05:10:50;;;;;;;22.13;13.95;;;10.90;99.90;;;;;;5026573;28;20041;-72
2022/04/13 05:13:20;;;;;;;30.15;15.55;;;10.90;99.90;;;;;;5028522;28;20033;-72
2022/04/13 05:15:46;;;;;;;21.30;14.15;;;10.90;99.90;;;;;;5027191;28;20049;-72
2022/04/13 05:18:13;;;;;;;20.20;14.05;;;10.80;99.90;;;;;;5029080;28;20068;-72
2022/04/13 05:20:39;;;;;;;23.15;14.80;;;10.90;99.90;;;;;;5027479;28;20067;-72
2022/04/13 05:23:05;;;;;;;18.70;13.60;;;10.80;99.90;;;;;;5026642;28;20034;-72
2022/04/13 05:25:31;;;;;;;25.75;16.83;;;10.80;99.90;;;;;;5026687;28;20049;-73
2022/04/13 05:27:56;;;;;;;20.15;16.13;;;10.80;99.90;;;;;;5042654;22;20406;-73
2022/04/13 05:30:22;;;;;;;21.35;15.35;;;10.90;99.90;;;;;;5022912;28;20045;-74
2022/04/13 05:32:57;;;;;;;21.67;14.80;;;10.90;99.90;;;;;;5017139;28;20047;-73
2022/04/13 05:35:27;;;;;;;25.50;14.85;;;10.90;99.90;;;;;;5003688;28;20072;-74
2022/04/13 05:37:56;;;;;;;26.60;15.38;;;10.90;99.90;;;;;;5025215;28;20495;-74
2022/04/13 05:40:23;;;;;;;21.48;15.27;;;10.90;99.90;;;;;;5014861;28;20128;-74
2022/04/13 05:42:50;;;;;;;23.80;15.75;;;10.90;99.90;;;;;;5016795;28;20033;-73
2022/04/13 05:45:16;;;;;;;24.98;15.70;;;10.90;99.90;;;;;;5012757;28;20088;-74
2022/04/13 05:47:43;;;;;;;30.20;15.63;;;10.90;99.90;;;;;;5035163;28;20026;-74
2022/04/13 05:50:10;;;;;;;22.88;15.23;;;10.90;99.90;;;;;;5016671;28;20042;-75
2022/04/13 05:52:36;;;;;;;21.90;15.00;;;10.90;99.90;;;;;;5019208;28;20037;-76
2022/04/13 05:55:03;;;;;;;24.02;15.00;;;10.90;99.90;;;;;;5019290;28;20040;-75
2022/04/13 05:57:29;;;;;;;27.80;15.63;;;10.90;99.90;;;;;;5020343;28;20029;-74
2022/04/13 05:59:55;;;;;;;23.60;16.08;;;10.90;99.90;;;;;;5011961;28;20045;-75
2022/04/13 06:02:20;;;;;;;23.42;15.75;;;10.90;99.90;;;;;;4997088;28;20033;-74
2022/04/13 06:04:46;;;;;;;26.05;15.95;;;10.90;99.90;;;;;;5025275;28;20118;-74
2022/04/13 06:07:12;;;;;;;21.63;16.50;;;10.90;99.90;;;;;;5019429;28;20076;-74
2022/04/13 06:09:37;;;;;;;27.65;17.70;;;11.00;99.90;;;;;;5018667;28;20045;-74
2022/04/13 06:12:03;;;;;;;28.85;17.98;;;11.00;99.90;;;;;;5025553;28;20037;-74
2022/04/13 06:14:29;;;;;;;26.55;17.95;;;11.00;99.90;;;;;;5015181;28;20041;-74
2022/04/13 06:16:55;;;;;;;27.73;18.13;;;11.10;99.90;;;;;;4995886;28;20037;-74
2022/04/13 06:19:20;;;;;;;26.38;17.15;;;11.20;99.90;;;;;;5012746;28;20072;-74
2022/04/13 06:21:46;;;;;;;28.58;17.85;;;11.30;99.90;;;;;;5024457;28;20041;-74
2022/04/13 06:24:12;;;;;;;24.98;17.63;;;11.40;99.90;;;;;;5020951;28;20037;-74
2022/04/13 06:26:38;;;;;;;30.00;18.52;;;11.50;99.90;;;;;;5019555;28;20053;-74
2022/04/13 06:29:04;;;;;;;27.63;17.85;;;11.60;99.90;;;;;;5020074;28;20060;-74
2022/04/13 06:31:29;;;;;;;27.17;17.77;;;11.80;99.90;;;;;;4999766;28;20057;-74
2022/04/13 06:33:55;;;;;;;29.70;17.85;;;12.00;99.90;;;;;;5015748;28;20037;-74
2022/04/13 06:36:21;;;;;;;25.58;16.98;;;12.10;99.90;;;;;;5024381;28;20041;-74
2022/04/13 06:38:46;;;;;;;26.67;18.48;;;12.30;99.90;;;;;;5018841;28;20033;-74
2022/04/13 06:41:13;;;;;;;26.23;15.88;;;12.50;99.90;;;;;;5033795;28;20030;-74
2022/04/13 06:43:39;;;;;;;24.23;15.45;;;12.60;99.90;;;;;;5016946;28;20099;-74
2022/04/13 06:46:06;;;;;;;26.70;14.45;;;12.80;99.90;;;;;;5012535;28;20075;-74
2022/04/13 06:48:32;;;;;;;28.88;14.23;;;12.90;99.90;;;;;;5016724;28;20052;-75
2022/04/13 06:50:59;;;;;;;24.02;13.82;;;13.00;99.90;;;;;;5031737;28;20042;-75
2022/04/13 06:53:26;;;;;;;20.00;13.30;;;13.10;99.90;;;;;;4999582;28;20042;-74
2022/04/13 06:55:52;;;;;;;19.80;12.73;;;13.20;99.90;;;;;;5020998;28;20044;-74
2022/04/13 06:58:19;;;;;;;20.05;12.68;;;13.40;99.90;;;;;;5021893;28;20030;-74
2022/04/13 07:00:45;;;;;;;19.10;11.88;;;13.40;99.90;;;;;;5022857;28;20037;-74
2022/04/13 07:03:10;;;;;;;15.73;11.65;;;13.50;99.90;;;;;;5021400;28;20041;-74
2022/04/13 07:05:37;;;;;;;17.73;11.95;;;13.50;99.90;;;;;;5014482;28;20164;-74
2022/04/13 07:08:04;;;;;;;18.40;12.07;;;13.60;99.90;;;;;;5030910;28;20041;-74
2022/04/13 07:10:31;;;;;;;19.80;12.57;;;13.60;99.90;;;;;;5015331;28;20038;-74
2022/04/13 07:12:57;;;;;;;21.25;13.65;;;13.70;99.90;;;;;;5014954;28;20060;-74
2022/04/13 07:15:23;;;;;;;20.38;14.05;;;13.70;99.90;;;;;;5020740;28;20041;-75
2022/04/13 07:17:49;;;;;;;19.48;12.65;;;13.80;99.90;;;;;;5017497;28;20045;-74
2022/04/13 07:20:16;;;;;;;19.35;12.02;;;14.00;99.90;;;;;;5017379;28;20044;-75
2022/04/13 07:22:46;;;;;;;21.88;12.55;;;14.10;99.90;;;;;;5018139;28;20037;-74
2022/04/13 07:25:13;;;;;;;24.08;12.85;;;14.20;99.90;;;;;;5014801;28;20125;-74
2022/04/13 07:27:39;;;;;;;20.77;13.15;;;14.30;99.90;;;;;;5016328;28;20041;-74
2022/04/13 07:30:05;;;;;;;22.33;12.90;;;14.40;99.90;;;;;;5016116;28;20042;-74
2022/04/13 07:32:31;;;;;;;20.58;12.32;;;14.50;99.90;;;;;;5014743;28;20053;-74
2022/04/13 07:35:02;;;;;;;20.15;12.23;;;14.50;99.90;;;;;;5019145;28;20052;-74
2022/04/13 07:37:28;;;;;;;15.77;12.40;;;14.50;99.90;;;;;;5016349;28;20128;-74
2022/04/13 07:39:54;;;;;;;21.20;12.13;;;14.40;99.90;;;;;;4997476;28;20124;-74
2022/04/13 07:42:24;;;;;;;22.05;13.73;;;14.50;99.90;;;;;;5016933;28;20037;-74
2022/04/13 07:44:50;;;;;;;22.40;14.15;;;14.50;99.90;;;;;;5016675;28;20038;-74
2022/04/13 07:47:17;;;;;;;22.73;13.20;;;14.50;99.90;;;;;;5016724;28;20103;-74
2022/04/13 07:49:46;;;;;;;24.73;13.35;;;14.50;99.90;;;;;;5015687;28;20087;-74
2022/04/13 07:52:13;;;;;;;21.30;12.65;;;14.50;99.90;;;;;;5012855;28;20045;-74
2022/04/13 07:54:39;;;;;;;19.40;12.30;;;14.50;99.90;;;;;;5010131;28;20129;-74
2022/04/13 07:57:06;;;;;;;20.77;13.25;;;14.60;99.90;;;;;;5025624;28;20037;-74
2022/04/13 07:59:31;;;;;;;22.20;12.35;;;14.40;99.90;;;;;;5021668;28;20044;-74
2022/04/13 08:01:58;;;;;;;19.08;12.18;;;14.50;99.90;;;;;;5030099;28;20128;-74
2022/04/13 08:04:23;;;;;;;23.33;12.95;;;14.50;99.90;;;;;;5014875;28;20033;-74
2022/04/13 08:06:51;;;;;;;21.27;12.43;;;14.60;99.90;;;;;;5024600;28;20037;-74
2022/04/13 08:09:17;;;;;;;20.42;12.50;;;14.60;99.90;;;;;;5021452;28;20053;-74
2022/04/13 08:11:45;;;;;;;20.08;11.98;;;14.70;99.90;;;;;;5014876;28;20038;-74
2022/04/13 08:14:10;;;;;;;19.13;11.18;;;14.70;99.90;;;;;;5015394;28;20037;-74
2022/04/13 08:16:36;;;;;;;18.17;10.98;;;14.70;99.90;;;;;;5014461;28;20041;-74
2022/04/13 08:19:02;;;;;;;19.25;10.95;;;14.70;99.90;;;;;;5014668;28;20388;-74
2022/04/13 08:21:28;;;;;;;19.65;10.68;;;14.70;99.90;;;;;;5027331;28;20138;-74
2022/04/13 08:23:53;;;;;;;16.15;11.15;;;14.70;99.90;;;;;;5022298;28;20064;-74
2022/04/13 08:26:19;;;;;;;17.73;10.95;;;14.70;99.90;;;;;;5023812;28;20044;-74
2022/04/13 08:28:45;;;;;;;23.45;11.80;;;14.70;99.90;;;;;;5015160;28;20048;-74
2022/04/13 08:31:10;;;;;;;17.48;11.43;;;14.70;99.90;;;;;;5011164;28;20034;-74
2022/04/13 08:33:36;;;;;;;21.08;11.40;;;14.70;99.90;;;;;;5019810;28;20048;-74
2022/04/13 08:36:03;;;;;;;21.23;11.55;;;14.80;99.90;;;;;;5016943;28;20053;-74
2022/04/13 08:38:29;;;;;;;15.00;10.98;;;15.00;99.90;;;;;;5014800;28;20033;-74
2022/04/13 08:41:00;;;;;;;18.60;10.38;;;15.00;99.90;;;;;;5022911;28;20037;-74
2022/04/13 08:43:58;;;;;;;19.58;11.00;;;15.00;99.90;;;;;;5014084;28;20034;-74
2022/04/13 08:46:25;;;;;;;14.35;10.23;;;15.10;99.90;;;;;;5010663;28;20033;-74
2022/04/13 08:48:55;;;;;;;16.88;10.10;;;15.20;99.90;;;;;;5015457;28;20037;-74
2022/04/13 08:51:22;;;;;;;17.27;10.50;;;15.20;99.90;;;;;;5010270;28;20041;-74
2022/04/13 08:53:52;;;;;;;14.85;8.50;;;15.30;99.90;;;;;;5023550;28;20438;-75
2022/04/13 08:56:19;;;;;;;15.65;8.77;;;15.40;99.90;;;;;;5034204;28;20499;-74
2022/04/13 08:59:04;;;;;;;14.13;7.50;;;15.50;99.90;;;;;;5015666;28;20033;-74
2022/04/13 09:01:46;;;;;;;16.33;7.85;;;15.70;99.90;;;;;;5035261;28;20120;-75
2022/04/13 09:04:15;;;;;;;13.88;6.57;;;15.80;99.90;;;;;;5011258;28;20046;-74
2022/04/13 09:06:42;;;;;;;10.75;6.72;;;16.00;99.90;;;;;;5012450;28;20541;-74
2022/04/13 09:09:31;;;;;;;12.95;6.13;;;16.10;99.90;;;;;;5019382;28;20041;-75
2022/04/13 09:11:58;;;;;;;11.30;6.32;;;16.30;99.90;;;;;;5013091;28;20045;-74
2022/04/13 09:14:27;;;;;;;10.05;6.35;;;16.30;99.90;;;;;;5017562;28;20033;-74
2022/04/13 09:16:55;;;;;;;15.13;8.07;;;16.50;99.90;;;;;;5013844;28;20120;-73
2022/04/13 09:19:23;;;;;;;12.45;6.40;;;16.50;99.90;;;;;;5013391;28;20041;-74
2022/04/13 09:21:50;;;;;;;11.27;6.10;;;16.70;99.90;;;;;;5029993;28;20033;-73
2022/04/13 09:24:18;;;;;;;15.43;7.43;;;16.70;99.90;;;;;;5018712;28;20037;-74
2022/04/13 09:26:46;;;;;;;14.27;7.65;;;16.90;99.90;;;;;;5018234;28;20052;-73
2022/04/13 09:29:12;;;;;;;11.13;6.30;;;17.00;99.90;;;;;;5015510;28;20048;-73
2022/04/13 09:31:38;;;;;;;11.43;6.53;;;17.00;99.90;;;;;;4997891;28;20071;-73
2022/04/13 09:34:03;;;;;;;11.13;6.40;;;17.20;99.90;;;;;;5022548;28;20037;-73
2022/04/13 09:36:29;;;;;;;13.63;6.03;;;17.20;99.90;;;;;;5015853;28;20136;-73
2022/04/13 09:38:56;;;;;;;9.27;5.60;;;17.30;99.90;;;;;;5013593;28;20038;-73
2022/04/13 09:41:36;;;;;;;8.85;5.18;;;17.30;99.90;;;;;;5013716;28;20153;-73
2022/04/13 09:44:10;;;;;;;10.23;5.20;;;17.40;99.90;;;;;;5011152;28;20103;-73
2022/04/13 09:46:37;;;;;;;10.00;5.40;;;17.40;99.90;;;;;;5013840;28;20514;-73
2022/04/13 09:49:17;;;;;;;9.38;6.03;;;17.60;99.90;;;;;;5022534;28;20514;-73
2022/04/13 09:51:50;;;;;;;10.35;5.28;;;17.80;99.90;;;;;;5024369;28;20052;-73
2022/04/13 09:54:17;;;;;;;9.95;5.65;;;17.80;99.90;;;;;;5013290;28;20083;-73
2022/04/13 09:56:46;;;;;;;11.85;6.40;;;17.50;99.90;;;;;;5018235;28;20037;-73
2022/04/13 09:59:23;;;;;;;10.05;5.70;;;17.60;99.90;;;;;;5036645;28;20554;-73
2022/04/13 10:01:49;;;;;;;9.40;5.95;;;17.80;99.90;;;;;;5011381;28;20029;-73
2022/04/13 10:04:27;;;;;;;10.88;5.97;;;17.90;99.90;;;;;;5015786;28;20501;-73
2022/04/13 10:06:53;;;;;;;8.93;4.85;;;17.90;99.90;;;;;;5004795;28;20596;-73
2022/04/13 10:09:21;;;;;;;8.55;5.03;;;18.20;99.90;;;;;;5019759;28;20112;-73
2022/04/13 10:11:58;;;;;;;10.00;5.00;;;18.10;99.90;;;;;;5016188;28;20037;-73
2022/04/13 10:14:24;;;;;;;8.02;3.97;;;17.90;99.90;;;;;;5031047;28;20484;-73
2022/04/13 10:16:53;;;;;;;8.25;4.40;;;17.70;99.90;;;;;;5013501;28;20035;-73
2022/04/13 10:19:22;;;;;;;9.73;5.30;;;17.70;99.90;;;;;;5030488;28;20029;-72
2022/04/13 10:21:49;;;;;;;12.05;5.35;;;17.40;99.90;;;;;;5012482;28;20510;-73
2022/04/13 10:24:19;;;;;;;9.63;4.45;;;17.70;99.90;;;;;;5014396;28;20113;-73
2022/04/13 10:27:06;;;;;;;6.68;4.18;;;17.70;99.90;;;;;;5009151;28;20395;-73
2022/04/13 10:29:43;;;;;;;7.57;3.72;;;17.70;99.90;;;;;;5008490;28;20048;-73
2022/04/13 10:32:16;;;;;;;8.93;4.38;;;18.00;99.90;;;;;;5014353;28;20056;-73
2022/04/13 10:34:49;;;;;;;8.98;4.65;;;18.30;99.90;;;;;;5015075;28;20435;-73
2022/04/13 10:37:17;;;;;;;5.30;4.22;;;18.60;99.90;;;;;;5030743;28;21758;-73
2022/04/13 10:39:45;;;;;;;8.23;4.53;;;18.80;99.90;;;;;;5013566;28;20387;-73
2022/04/13 10:42:12;;;;;;;11.23;5.40;;;18.70;99.90;;;;;;5014163;28;20044;-74
2022/04/13 10:44:53;;;;;;;7.28;4.38;;;18.90;99.90;;;;;;5015076;28;20044;-73
2022/04/13 10:47:24;;;;;;;7.03;4.40;;;19.10;99.90;;;;;;5009739;28;20865;-73
2022/04/13 10:50:01;;;;;;;8.27;4.47;;;19.30;99.90;;;;;;5016745;28;20037;-74
2022/04/13 10:52:39;;;;;;;10.07;4.70;;;19.40;99.90;;;;;;5008356;28;20041;-74
2022/04/13 10:55:13;;;;;;;7.28;4.97;;;19.40;99.90;;;;;;5015979;28;20045;-75
2022/04/13 10:57:49;;;;;;;7.38;4.57;;;19.20;99.90;;;;;;5017108;28;20399;-74
2022/04/13 11:00:18;;;;;;;8.60;4.60;;;19.20;99.90;;;;;;5017936;28;20470;-74
2022/04/13 11:02:48;;;;;;;8.20;4.40;;;19.00;99.90;;;;;;5015775;28;20061;-74
2022/04/13 11:05:14;;;;;;;7.80;4.05;;;18.90;99.90;;;;;;5017086;28;20053;-74
2022/04/13 11:07:40;;;;;;;7.18;4.13;;;18.90;99.90;;;;;;5018145;28;20056;-74
2022/04/13 11:10:11;;;;;;;9.63;4.68;;;19.00;99.90;;;;;;5020798;28;20044;-74
2022/04/13 11:12:37;;;;;;;8.67;4.60;;;18.90;99.90;;;;;;5001681;28;20221;-73
2022/04/13 11:15:03;;;;;;;12.52;5.47;;;18.90;99.90;;;;;;5016975;28;20087;-73
2022/04/13 11:17:30;;;;;;;8.30;5.63;;;18.90;99.90;;;;;;5023612;28;20372;-73
2022/04/13 11:20:19;;;;;;;10.73;6.72;;;18.90;99.90;;;;;;5022276;28;20045;-73
2022/04/13 11:22:45;;;;;;;11.30;6.07;;;18.70;99.90;;;;;;5021040;28;20064;-73
2022/04/13 11:25:31;;;;;;;11.43;6.00;;;18.80;99.90;;;;;;5018325;28;22409;-73
2022/04/13 11:27:57;;;;;;;9.15;5.95;;;18.50;99.90;;;;;;5019134;28;20045;-73
2022/04/13 11:30:22;;;;;;;8.25;5.22;;;18.40;99.90;;;;;;5017484;28;20221;-73
2022/04/13 11:32:49;;;;;;;10.95;5.28;;;18.40;99.90;;;;;;5021363;28;20510;-73
2022/04/13 11:35:27;;;;;;;8.80;5.60;;;18.20;99.90;;;;;;5018614;28;20045;-74
2022/04/13 11:38:11;;;;;;;9.70;4.95;;;18.00;99.90;;;;;;4996887;28;20042;-73
2022/04/13 11:41:04;;;;;;;8.45;4.97;;;18.00;99.90;;;;;;5015027;28;20179;-74
2022/04/13 11:43:30;;;;;;;8.90;4.75;;;17.70;99.90;;;;;;5001798;28;20041;-74
2022/04/13 11:45:59;;;;;;;9.02;4.75;;;17.70;99.90;;;;;;5035574;28;20046;-74
2022/04/13 11:48:33;;;;;;;10.05;4.70;;;17.70;99.90;;;;;;5016732;28;20048;-73
2022/04/13 11:51:26;;;;;;;8.68;5.07;;;17.80;99.90;;;;;;4998844;28;20045;-73
2022/04/13 11:54:07;;;;;;;9.05;4.10;;;17.90;99.90;;;;;;5014869;28;20140;-73
2022/04/13 11:56:48;;;;;;;12.13;4.80;;;17.90;99.90;;;;;;5003141;28;20090;-73
2022/04/13 11:59:36;;;;;;;11.80;4.53;;;17.90;99.90;;;;;;5018477;28;20068;-74
2022/04/13 12:02:06;;;;;;;8.30;4.10;;;18.10;99.90;;;;;;5018973;28;20045;-74
2022/04/13 12:04:33;;;;;;;9.80;4.80;;;18.20;99.90;;;;;;5020131;28;20090;-74
2022/04/13 12:07:00;;;;;;;10.43;4.55;;;18.40;99.90;;;;;;5020032;28;20041;-73
2022/04/13 12:09:28;;;;;;;12.90;4.70;;;18.40;99.90;;;;;;5020143;28;20041;-74
2022/04/13 12:11:55;;;;;;;7.50;3.85;;;18.40;99.90;;;;;;5008798;28;20041;-74
2022/04/13 12:14:36;;;;;;;7.38;3.70;;;18.40;99.90;;;;;;5020374;28;20037;-73
2022/04/13 12:17:02;;;;;;;8.32;3.05;;;18.30;99.90;;;;;;5018123;28;20037;-73
2022/04/13 12:19:42;;;;;;;10.40;3.72;;;18.30;99.90;;;;;;5021363;28;20124;-73
2022/04/13 12:22:15;;;;;;;8.43;3.25;;;18.40;99.90;;;;;;5016168;28;20494;-74
2022/04/13 12:25:01;;;;;;;;;;;18.40;99.90;;;;;;5019053;28;20132;-73
2022/04/13 12:27:27;;;;;;;9.02;3.42;;;18.50;99.90;;;;;;5013512;28;19928;-73
2022/04/13 12:30:16;;;;;;;10.55;4.32;;;18.40;99.90;;;;;;5019195;28;20040;-73
2022/04/13 12:32:46;;;;;;;9.43;4.05;;;18.30;99.90;;;;;;5019124;28;20065;-73
2022/04/13 12:35:13;;;;;;;7.72;3.50;;;18.20;99.90;;;;;;5013936;28;20047;-74
2022/04/13 12:37:51;;;;;;;8.55;3.85;;;18.10;99.90;;;;;;5017884;28;20045;-74
2022/04/13 12:40:22;;;;;;;13.45;4.50;;;18.00;99.90;;;;;;5015355;28;20032;-74